sensor_id;sensor_type;location;lat;lon;timestamp;P1;durP1;ratioP1;P2;durP2;ratioP2
28176;SDS011;15461;41.652;9.378;2023-06-22T00:00:55;15.57;;;5.57;;
28176;SDS011;15461;41.652;9.378;2023-06-22T00:03:22;10.65;;;5.43;;
28176;SDS011;15461;41.652;9.378;2023-06-22T00:05:49;13.23;;;5.20;;
28176;SDS011;15461;41.652;9.378;2023-06-22T00:08:15;11.20;;;5.07;;
28176;SDS011;15461;41.652;9.378;2023-06-22T00:10:41;9.05;;;4.95;;
28176;SDS011;15461;41.652;9.378;2023-06-22T00:13:08;21.40;;;5.72;;
28176;SDS011;15461;41.652;9.378;2023-06-22T00:15:35;15.77;;;5.15;;
28176;SDS011;15461;41.652;9.378;2023-06-22T00:18:02;13.48;;;4.63;;
28176;SDS011;15461;41.652;9.378;2023-06-22T00:20:28;13.10;;;5.10;;
28176;SDS011;15461;41.652;9.378;2023-06-22T00:22:58;13.30;;;5.10;;
28176;SDS011;15461;41.652;9.378;2023-06-22T00:25:25;14.35;;;5.45;;
28176;SDS011;15461;41.652;9.378;2023-06-22T00:27:51;18.30;;;5.88;;
28176;SDS011;15461;41.652;9.378;2023-06-22T00:30:18;16.13;;;5.20;;
28176;SDS011;15461;41.652;9.378;2023-06-22T00:32:44;19.20;;;5.32;;
28176;SDS011;15461;41.652;9.378;2023-06-22T00:35:13;16.35;;;5.88;;
28176;SDS011;15461;41.652;9.378;2023-06-22T00:37:39;19.20;;;5.80;;
28176;SDS011;15461;41.652;9.378;2023-06-22T00:40:07;19.73;;;5.75;;
28176;SDS011;15461;41.652;9.378;2023-06-22T00:42:36;11.52;;;4.85;;
28176;SDS011;15461;41.652;9.378;2023-06-22T00:45:03;16.15;;;5.38;;
28176;SDS011;15461;41.652;9.378;2023-06-22T00:47:29;13.38;;;5.13;;
28176;SDS011;15461;41.652;9.378;2023-06-22T00:49:55;12.32;;;5.00;;
28176;SDS011;15461;41.652;9.378;2023-06-22T00:52:21;12.02;;;5.28;;
28176;SDS011;15461;41.652;9.378;2023-06-22T00:54:51;20.23;;;5.68;;
28176;SDS011;15461;41.652;9.378;2023-06-22T00:57:19;12.95;;;5.25;;
28176;SDS011;15461;41.652;9.378;2023-06-22T00:59:47;18.83;;;5.57;;
28176;SDS011;15461;41.652;9.378;2023-06-22T01:02:14;17.88;;;5.80;;
28176;SDS011;15461;41.652;9.378;2023-06-22T01:04:40;16.33;;;5.40;;
28176;SDS011;15461;41.652;9.378;2023-06-22T01:10:02;11.65;;;5.70;;
28176;SDS011;15461;41.652;9.378;2023-06-22T01:12:54;18.95;;;5.80;;
28176;SDS011;15461;41.652;9.378;2023-06-22T01:15:30;17.33;;;5.53;;
28176;SDS011;15461;41.652;9.378;2023-06-22T01:18:18;12.63;;;5.47;;
28176;SDS011;15461;41.652;9.378;2023-06-22T01:20:52;16.63;;;6.43;;
28176;SDS011;15461;41.652;9.378;2023-06-22T01:26:14;16.02;;;5.80;;
28176;SDS011;15461;41.652;9.378;2023-06-22T01:28:49;14.77;;;5.60;;
28176;SDS011;15461;41.652;9.378;2023-06-22T01:31:18;13.85;;;5.22;;
28176;SDS011;15461;41.652;9.378;2023-06-22T01:33:51;12.02;;;5.80;;
28176;SDS011;15461;41.652;9.378;2023-06-22T01:36:21;19.17;;;5.63;;
28176;SDS011;15461;41.652;9.378;2023-06-22T01:38:47;20.45;;;6.00;;
28176;SDS011;15461;41.652;9.378;2023-06-22T01:41:15;15.02;;;5.32;;
28176;SDS011;15461;41.652;9.378;2023-06-22T01:43:43;15.15;;;5.47;;
28176;SDS011;15461;41.652;9.378;2023-06-22T01:46:10;18.33;;;5.95;;
28176;SDS011;15461;41.652;9.378;2023-06-22T01:48:38;21.02;;;5.68;;
28176;SDS011;15461;41.652;9.378;2023-06-22T01:51:04;19.05;;;5.55;;
28176;SDS011;15461;41.652;9.378;2023-06-22T01:53:31;20.42;;;5.90;;
28176;SDS011;15461;41.652;9.378;2023-06-22T01:55:57;17.00;;;6.40;;
28176;SDS011;15461;41.652;9.378;2023-06-22T01:58:25;18.83;;;6.00;;
28176;SDS011;15461;41.652;9.378;2023-06-22T02:00:55;21.45;;;5.78;;
28176;SDS011;15461;41.652;9.378;2023-06-22T02:03:33;14.02;;;5.85;;
28176;SDS011;15461;41.652;9.378;2023-06-22T02:06:06;19.10;;;5.47;;
28176;SDS011;15461;41.652;9.378;2023-06-22T02:08:43;16.58;;;5.32;;
28176;SDS011;15461;41.652;9.378;2023-06-22T02:11:15;13.88;;;5.55;;
28176;SDS011;15461;41.652;9.378;2023-06-22T02:13:44;15.70;;;5.88;;
28176;SDS011;15461;41.652;9.378;2023-06-22T02:16:11;15.23;;;5.72;;
28176;SDS011;15461;41.652;9.378;2023-06-22T02:18:45;16.83;;;5.85;;
28176;SDS011;15461;41.652;9.378;2023-06-22T02:21:16;14.98;;;5.53;;
28176;SDS011;15461;41.652;9.378;2023-06-22T02:23:42;13.70;;;5.70;;
28176;SDS011;15461;41.652;9.378;2023-06-22T02:26:08;12.35;;;5.68;;
28176;SDS011;15461;41.652;9.378;2023-06-22T02:28:34;13.45;;;5.30;;
28176;SDS011;15461;41.652;9.378;2023-06-22T02:31:00;15.07;;;5.70;;
28176;SDS011;15461;41.652;9.378;2023-06-22T02:33:25;14.90;;;5.68;;
28176;SDS011;15461;41.652;9.378;2023-06-22T02:35:52;16.48;;;5.72;;
28176;SDS011;15461;41.652;9.378;2023-06-22T02:38:21;22.73;;;5.55;;
28176;SDS011;15461;41.652;9.378;2023-06-22T02:40:51;17.52;;;5.35;;
28176;SDS011;15461;41.652;9.378;2023-06-22T02:43:17;17.40;;;5.55;;
28176;SDS011;15461;41.652;9.378;2023-06-22T02:45:43;16.67;;;6.05;;
28176;SDS011;15461;41.652;9.378;2023-06-22T02:48:10;16.80;;;6.15;;
28176;SDS011;15461;41.652;9.378;2023-06-22T02:50:36;15.18;;;6.25;;
28176;SDS011;15461;41.652;9.378;2023-06-22T02:53:03;22.52;;;5.75;;
28176;SDS011;15461;41.652;9.378;2023-06-22T02:55:35;20.73;;;5.97;;
28176;SDS011;15461;41.652;9.378;2023-06-22T02:58:00;17.83;;;6.07;;
28176;SDS011;15461;41.652;9.378;2023-06-22T03:00:31;15.27;;;5.93;;
28176;SDS011;15461;41.652;9.378;2023-06-22T03:02:57;15.63;;;6.28;;
28176;SDS011;15461;41.652;9.378;2023-06-22T03:05:23;14.93;;;6.18;;
28176;SDS011;15461;41.652;9.378;2023-06-22T03:07:49;19.95;;;6.57;;
28176;SDS011;15461;41.652;9.378;2023-06-22T03:10:16;20.30;;;6.07;;
28176;SDS011;15461;41.652;9.378;2023-06-22T03:12:42;24.88;;;6.70;;
28176;SDS011;15461;41.652;9.378;2023-06-22T03:15:10;17.77;;;5.93;;
28176;SDS011;15461;41.652;9.378;2023-06-22T03:17:38;21.63;;;6.32;;
28176;SDS011;15461;41.652;9.378;2023-06-22T03:20:06;19.63;;;6.00;;
28176;SDS011;15461;41.652;9.378;2023-06-22T03:22:40;25.08;;;6.95;;
28176;SDS011;15461;41.652;9.378;2023-06-22T03:25:07;16.20;;;6.43;;
28176;SDS011;15461;41.652;9.378;2023-06-22T03:27:43;21.95;;;6.13;;
28176;SDS011;15461;41.652;9.378;2023-06-22T03:30:10;17.35;;;6.13;;
28176;SDS011;15461;41.652;9.378;2023-06-22T03:32:36;22.40;;;6.72;;
28176;SDS011;15461;41.652;9.378;2023-06-22T03:35:04;21.83;;;6.70;;
28176;SDS011;15461;41.652;9.378;2023-06-22T03:37:32;22.30;;;7.20;;
28176;SDS011;15461;41.652;9.378;2023-06-22T03:39:59;18.88;;;6.55;;
28176;SDS011;15461;41.652;9.378;2023-06-22T03:42:25;14.43;;;6.28;;
28176;SDS011;15461;41.652;9.378;2023-06-22T03:44:51;19.15;;;6.68;;
28176;SDS011;15461;41.652;9.378;2023-06-22T03:47:18;26.13;;;7.38;;
28176;SDS011;15461;41.652;9.378;2023-06-22T03:49:44;22.08;;;6.43;;
28176;SDS011;15461;41.652;9.378;2023-06-22T03:52:09;14.15;;;6.13;;
28176;SDS011;15461;41.652;9.378;2023-06-22T03:54:36;21.67;;;6.38;;
28176;SDS011;15461;41.652;9.378;2023-06-22T03:57:02;16.55;;;6.35;;
28176;SDS011;15461;41.652;9.378;2023-06-22T03:59:28;17.65;;;6.45;;
28176;SDS011;15461;41.652;9.378;2023-06-22T04:01:54;16.92;;;5.90;;
28176;SDS011;15461;41.652;9.378;2023-06-22T04:04:19;19.00;;;6.28;;
28176;SDS011;15461;41.652;9.378;2023-06-22T04:06:46;20.42;;;6.88;;
28176;SDS011;15461;41.652;9.378;2023-06-22T04:09:11;21.50;;;6.50;;
28176;SDS011;15461;41.652;9.378;2023-06-22T04:11:37;16.42;;;6.10;;
28176;SDS011;15461;41.652;9.378;2023-06-22T04:14:03;21.40;;;6.60;;
28176;SDS011;15461;41.652;9.378;2023-06-22T04:16:29;22.73;;;6.10;;
28176;SDS011;15461;41.652;9.378;2023-06-22T04:18:54;16.67;;;5.53;;
28176;SDS011;15461;41.652;9.378;2023-06-22T04:21:20;18.80;;;6.18;;
28176;SDS011;15461;41.652;9.378;2023-06-22T04:23:46;18.27;;;5.90;;
28176;SDS011;15461;41.652;9.378;2023-06-22T04:26:12;16.02;;;6.10;;
28176;SDS011;15461;41.652;9.378;2023-06-22T04:28:39;20.15;;;6.28;;
28176;SDS011;15461;41.652;9.378;2023-06-22T04:31:05;20.23;;;5.95;;
28176;SDS011;15461;41.652;9.378;2023-06-22T04:33:31;16.02;;;5.95;;
28176;SDS011;15461;41.652;9.378;2023-06-22T04:35:57;18.55;;;5.65;;
28176;SDS011;15461;41.652;9.378;2023-06-22T04:38:26;15.90;;;5.70;;
28176;SDS011;15461;41.652;9.378;2023-06-22T04:40:52;17.02;;;5.95;;
28176;SDS011;15461;41.652;9.378;2023-06-22T04:43:18;18.65;;;6.60;;
28176;SDS011;15461;41.652;9.378;2023-06-22T04:45:45;19.65;;;6.40;;
28176;SDS011;15461;41.652;9.378;2023-06-22T04:48:11;19.20;;;6.45;;
28176;SDS011;15461;41.652;9.378;2023-06-22T04:50:41;17.27;;;6.03;;
28176;SDS011;15461;41.652;9.378;2023-06-22T04:53:07;16.50;;;5.88;;
28176;SDS011;15461;41.652;9.378;2023-06-22T04:55:38;16.90;;;6.13;;
28176;SDS011;15461;41.652;9.378;2023-06-22T04:58:07;17.63;;;6.18;;
28176;SDS011;15461;41.652;9.378;2023-06-22T05:00:32;17.83;;;6.32;;
28176;SDS011;15461;41.652;9.378;2023-06-22T05:03:01;20.83;;;6.20;;
28176;SDS011;15461;41.652;9.378;2023-06-22T05:05:28;16.80;;;5.95;;
28176;SDS011;15461;41.652;9.378;2023-06-22T05:07:56;17.60;;;6.00;;
28176;SDS011;15461;41.652;9.378;2023-06-22T05:10:25;15.15;;;6.55;;
28176;SDS011;15461;41.652;9.378;2023-06-22T05:12:51;16.02;;;6.57;;
28176;SDS011;15461;41.652;9.378;2023-06-22T05:15:17;19.42;;;6.03;;
28176;SDS011;15461;41.652;9.378;2023-06-22T05:17:44;18.45;;;6.07;;
28176;SDS011;15461;41.652;9.378;2023-06-22T05:20:11;17.45;;;6.10;;
28176;SDS011;15461;41.652;9.378;2023-06-22T05:22:40;21.13;;;6.38;;
28176;SDS011;15461;41.652;9.378;2023-06-22T05:25:08;21.35;;;6.50;;
28176;SDS011;15461;41.652;9.378;2023-06-22T05:27:35;13.40;;;6.20;;
28176;SDS011;15461;41.652;9.378;2023-06-22T05:30:08;21.70;;;6.07;;
28176;SDS011;15461;41.652;9.378;2023-06-22T05:32:34;15.93;;;6.35;;
28176;SDS011;15461;41.652;9.378;2023-06-22T05:35:02;18.38;;;5.75;;
28176;SDS011;15461;41.652;9.378;2023-06-22T05:37:28;29.65;;;6.80;;
28176;SDS011;15461;41.652;9.378;2023-06-22T05:39:54;17.88;;;6.22;;
28176;SDS011;15461;41.652;9.378;2023-06-22T05:42:20;22.52;;;5.93;;
28176;SDS011;15461;41.652;9.378;2023-06-22T05:44:46;21.65;;;6.45;;
28176;SDS011;15461;41.652;9.378;2023-06-22T05:47:13;14.82;;;5.50;;
28176;SDS011;15461;41.652;9.378;2023-06-22T05:49:38;21.33;;;6.40;;
28176;SDS011;15461;41.652;9.378;2023-06-22T05:52:04;19.20;;;5.95;;
28176;SDS011;15461;41.652;9.378;2023-06-22T05:54:30;18.92;;;6.15;;
28176;SDS011;15461;41.652;9.378;2023-06-22T05:56:56;18.42;;;6.00;;
28176;SDS011;15461;41.652;9.378;2023-06-22T05:59:22;13.60;;;6.00;;
28176;SDS011;15461;41.652;9.378;2023-06-22T06:01:48;19.20;;;5.95;;
28176;SDS011;15461;41.652;9.378;2023-06-22T06:04:17;15.40;;;6.05;;
28176;SDS011;15461;41.652;9.378;2023-06-22T06:06:43;17.00;;;5.53;;
28176;SDS011;15461;41.652;9.378;2023-06-22T06:09:09;17.40;;;6.35;;
28176;SDS011;15461;41.652;9.378;2023-06-22T06:11:36;15.07;;;5.78;;
28176;SDS011;15461;41.652;9.378;2023-06-22T06:14:03;15.95;;;6.18;;
28176;SDS011;15461;41.652;9.378;2023-06-22T06:16:28;23.10;;;5.70;;
28176;SDS011;15461;41.652;9.378;2023-06-22T06:18:54;18.73;;;5.50;;
28176;SDS011;15461;41.652;9.378;2023-06-22T06:21:21;19.17;;;5.90;;
28176;SDS011;15461;41.652;9.378;2023-06-22T06:23:47;16.38;;;5.90;;
28176;SDS011;15461;41.652;9.378;2023-06-22T06:26:13;19.70;;;6.30;;
28176;SDS011;15461;41.652;9.378;2023-06-22T06:28:41;16.70;;;5.22;;
28176;SDS011;15461;41.652;9.378;2023-06-22T06:31:08;14.00;;;5.40;;
28176;SDS011;15461;41.652;9.378;2023-06-22T06:33:34;18.10;;;5.47;;
28176;SDS011;15461;41.652;9.378;2023-06-22T06:36:01;17.33;;;5.68;;
28176;SDS011;15461;41.652;9.378;2023-06-22T06:38:29;17.58;;;6.05;;
28176;SDS011;15461;41.652;9.378;2023-06-22T06:40:55;26.00;;;5.70;;
28176;SDS011;15461;41.652;9.378;2023-06-22T06:43:21;17.83;;;5.75;;
28176;SDS011;15461;41.652;9.378;2023-06-22T06:45:48;15.63;;;5.82;;
28176;SDS011;15461;41.652;9.378;2023-06-22T06:48:14;16.35;;;5.50;;
28176;SDS011;15461;41.652;9.378;2023-06-22T06:50:40;16.38;;;5.38;;
28176;SDS011;15461;41.652;9.378;2023-06-22T06:53:06;17.30;;;5.05;;
28176;SDS011;15461;41.652;9.378;2023-06-22T06:55:31;13.98;;;5.40;;
28176;SDS011;15461;41.652;9.378;2023-06-22T06:58:01;16.00;;;4.65;;
28176;SDS011;15461;41.652;9.378;2023-06-22T07:00:28;15.43;;;6.10;;
28176;SDS011;15461;41.652;9.378;2023-06-22T07:02:53;10.50;;;4.82;;
28176;SDS011;15461;41.652;9.378;2023-06-22T07:05:19;15.52;;;4.60;;
28176;SDS011;15461;41.652;9.378;2023-06-22T07:07:45;19.02;;;4.68;;
28176;SDS011;15461;41.652;9.378;2023-06-22T07:10:11;16.70;;;5.03;;
28176;SDS011;15461;41.652;9.378;2023-06-22T07:12:37;11.02;;;5.03;;
28176;SDS011;15461;41.652;9.378;2023-06-22T07:15:03;14.20;;;4.95;;
28176;SDS011;15461;41.652;9.378;2023-06-22T07:17:31;19.23;;;5.40;;
28176;SDS011;15461;41.652;9.378;2023-06-22T07:19:57;16.23;;;5.20;;
28176;SDS011;15461;41.652;9.378;2023-06-22T07:22:22;24.45;;;5.82;;
28176;SDS011;15461;41.652;9.378;2023-06-22T07:24:48;13.98;;;4.97;;
28176;SDS011;15461;41.652;9.378;2023-06-22T07:27:14;13.00;;;4.93;;
28176;SDS011;15461;41.652;9.378;2023-06-22T07:29:44;21.85;;;5.50;;
28176;SDS011;15461;41.652;9.378;2023-06-22T07:32:09;12.90;;;4.95;;
28176;SDS011;15461;41.652;9.378;2023-06-22T07:34:36;11.25;;;5.15;;
28176;SDS011;15461;41.652;9.378;2023-06-22T07:37:01;14.65;;;4.72;;
28176;SDS011;15461;41.652;9.378;2023-06-22T07:39:28;11.35;;;5.00;;
28176;SDS011;15461;41.652;9.378;2023-06-22T07:41:54;12.52;;;4.80;;
28176;SDS011;15461;41.652;9.378;2023-06-22T07:44:19;16.13;;;4.82;;
28176;SDS011;15461;41.652;9.378;2023-06-22T07:46:45;11.48;;;4.60;;
28176;SDS011;15461;41.652;9.378;2023-06-22T07:49:11;14.05;;;4.97;;
28176;SDS011;15461;41.652;9.378;2023-06-22T07:51:37;18.55;;;5.10;;
28176;SDS011;15461;41.652;9.378;2023-06-22T07:54:03;14.85;;;5.45;;
28176;SDS011;15461;41.652;9.378;2023-06-22T07:56:29;14.27;;;4.68;;
28176;SDS011;15461;41.652;9.378;2023-06-22T07:58:54;15.52;;;5.15;;
28176;SDS011;15461;41.652;9.378;2023-06-22T08:01:23;13.73;;;4.72;;
28176;SDS011;15461;41.652;9.378;2023-06-22T08:03:49;14.52;;;4.97;;
28176;SDS011;15461;41.652;9.378;2023-06-22T08:06:15;14.05;;;5.18;;
28176;SDS011;15461;41.652;9.378;2023-06-22T08:08:41;12.60;;;5.13;;
28176;SDS011;15461;41.652;9.378;2023-06-22T08:11:08;15.25;;;4.63;;
28176;SDS011;15461;41.652;9.378;2023-06-22T08:13:34;14.38;;;5.00;;
28176;SDS011;15461;41.652;9.378;2023-06-22T08:16:00;12.55;;;4.43;;
28176;SDS011;15461;41.652;9.378;2023-06-22T08:18:26;18.92;;;5.13;;
28176;SDS011;15461;41.652;9.378;2023-06-22T08:20:52;14.57;;;4.32;;
28176;SDS011;15461;41.652;9.378;2023-06-22T08:23:18;12.23;;;4.07;;
28176;SDS011;15461;41.652;9.378;2023-06-22T08:25:44;11.73;;;4.78;;
28176;SDS011;15461;41.652;9.378;2023-06-22T08:28:10;11.73;;;4.70;;
28176;SDS011;15461;41.652;9.378;2023-06-22T08:30:36;16.73;;;5.00;;
28176;SDS011;15461;41.652;9.378;2023-06-22T08:33:02;13.43;;;4.88;;
28176;SDS011;15461;41.652;9.378;2023-06-22T08:35:28;12.98;;;4.60;;
28176;SDS011;15461;41.652;9.378;2023-06-22T08:37:54;14.60;;;5.20;;
28176;SDS011;15461;41.652;9.378;2023-06-22T08:40:22;12.13;;;4.30;;
28176;SDS011;15461;41.652;9.378;2023-06-22T08:42:49;9.20;;;4.32;;
28176;SDS011;15461;41.652;9.378;2023-06-22T08:45:15;15.20;;;4.68;;
28176;SDS011;15461;41.652;9.378;2023-06-22T08:47:41;13.50;;;4.78;;
28176;SDS011;15461;41.652;9.378;2023-06-22T08:50:08;12.02;;;4.68;;
28176;SDS011;15461;41.652;9.378;2023-06-22T08:52:35;10.60;;;4.68;;
28176;SDS011;15461;41.652;9.378;2023-06-22T08:55:01;12.77;;;5.07;;
28176;SDS011;15461;41.652;9.378;2023-06-22T08:57:28;14.52;;;5.07;;
28176;SDS011;15461;41.652;9.378;2023-06-22T08:59:54;12.55;;;4.78;;
28176;SDS011;15461;41.652;9.378;2023-06-22T09:02:24;11.55;;;4.47;;
28176;SDS011;15461;41.652;9.378;2023-06-22T09:04:50;13.02;;;4.72;;
28176;SDS011;15461;41.652;9.378;2023-06-22T09:07:21;15.65;;;5.03;;
28176;SDS011;15461;41.652;9.378;2023-06-22T09:09:51;16.65;;;4.90;;
28176;SDS011;15461;41.652;9.378;2023-06-22T09:12:17;15.48;;;5.45;;
28176;SDS011;15461;41.652;9.378;2023-06-22T09:14:45;15.55;;;5.07;;
28176;SDS011;15461;41.652;9.378;2023-06-22T09:17:14;12.82;;;5.13;;
28176;SDS011;15461;41.652;9.378;2023-06-22T09:19:40;15.27;;;5.15;;
28176;SDS011;15461;41.652;9.378;2023-06-22T09:22:06;15.57;;;5.20;;
28176;SDS011;15461;41.652;9.378;2023-06-22T09:24:32;12.82;;;4.53;;
28176;SDS011;15461;41.652;9.378;2023-06-22T09:26:58;17.70;;;4.60;;
28176;SDS011;15461;41.652;9.378;2023-06-22T09:29:24;14.15;;;4.55;;
28176;SDS011;15461;41.652;9.378;2023-06-22T09:31:50;12.80;;;4.70;;
28176;SDS011;15461;41.652;9.378;2023-06-22T09:34:18;12.85;;;4.97;;
28176;SDS011;15461;41.652;9.378;2023-06-22T09:36:45;18.45;;;4.90;;
28176;SDS011;15461;41.652;9.378;2023-06-22T09:39:12;13.50;;;4.32;;
28176;SDS011;15461;41.652;9.378;2023-06-22T09:41:38;12.27;;;4.65;;
28176;SDS011;15461;41.652;9.378;2023-06-22T09:44:03;12.98;;;4.65;;
28176;SDS011;15461;41.652;9.378;2023-06-22T09:46:29;13.43;;;5.15;;
28176;SDS011;15461;41.652;9.378;2023-06-22T09:48:55;13.77;;;4.68;;
28176;SDS011;15461;41.652;9.378;2023-06-22T09:51:21;11.57;;;4.30;;
28176;SDS011;15461;41.652;9.378;2023-06-22T09:53:49;11.93;;;5.00;;
28176;SDS011;15461;41.652;9.378;2023-06-22T09:56:15;14.07;;;5.07;;
28176;SDS011;15461;41.652;9.378;2023-06-22T09:58:44;14.65;;;4.32;;
28176;SDS011;15461;41.652;9.378;2023-06-22T10:01:17;11.43;;;4.28;;
28176;SDS011;15461;41.652;9.378;2023-06-22T10:03:44;13.95;;;4.95;;
28176;SDS011;15461;41.652;9.378;2023-06-22T10:06:09;11.65;;;4.40;;
28176;SDS011;15461;41.652;9.378;2023-06-22T10:08:35;11.75;;;4.65;;
28176;SDS011;15461;41.652;9.378;2023-06-22T10:11:03;19.67;;;5.47;;
28176;SDS011;15461;41.652;9.378;2023-06-22T10:13:29;19.25;;;5.47;;
28176;SDS011;15461;41.652;9.378;2023-06-22T10:15:55;14.88;;;4.75;;
28176;SDS011;15461;41.652;9.378;2023-06-22T10:18:21;12.65;;;4.43;;
28176;SDS011;15461;41.652;9.378;2023-06-22T10:20:47;15.50;;;4.85;;
28176;SDS011;15461;41.652;9.378;2023-06-22T10:23:17;12.13;;;5.05;;
28176;SDS011;15461;41.652;9.378;2023-06-22T10:25:44;17.63;;;4.93;;
28176;SDS011;15461;41.652;9.378;2023-06-22T10:28:10;14.05;;;4.82;;
28176;SDS011;15461;41.652;9.378;2023-06-22T10:30:37;12.13;;;4.43;;
28176;SDS011;15461;41.652;9.378;2023-06-22T10:33:06;16.63;;;4.70;;
28176;SDS011;15461;41.652;9.378;2023-06-22T10:35:33;16.90;;;4.65;;
28176;SDS011;15461;41.652;9.378;2023-06-22T10:37:59;14.02;;;4.35;;
28176;SDS011;15461;41.652;9.378;2023-06-22T10:40:25;11.98;;;4.47;;
28176;SDS011;15461;41.652;9.378;2023-06-22T10:42:50;18.42;;;5.18;;
28176;SDS011;15461;41.652;9.378;2023-06-22T10:45:16;13.52;;;4.32;;
28176;SDS011;15461;41.652;9.378;2023-06-22T10:47:42;19.42;;;5.32;;
28176;SDS011;15461;41.652;9.378;2023-06-22T10:50:08;17.67;;;5.03;;
28176;SDS011;15461;41.652;9.378;2023-06-22T10:52:34;14.65;;;4.50;;
28176;SDS011;15461;41.652;9.378;2023-06-22T10:55:00;14.55;;;4.40;;
28176;SDS011;15461;41.652;9.378;2023-06-22T10:57:25;11.65;;;4.20;;
28176;SDS011;15461;41.652;9.378;2023-06-22T10:59:51;13.27;;;4.32;;
28176;SDS011;15461;41.652;9.378;2023-06-22T11:02:17;14.98;;;5.13;;
28176;SDS011;15461;41.652;9.378;2023-06-22T11:04:43;12.85;;;4.40;;
28176;SDS011;15461;41.652;9.378;2023-06-22T11:07:09;11.20;;;4.72;;
28176;SDS011;15461;41.652;9.378;2023-06-22T11:09:35;11.30;;;4.70;;
28176;SDS011;15461;41.652;9.378;2023-06-22T11:12:00;13.80;;;4.50;;
28176;SDS011;15461;41.652;9.378;2023-06-22T11:14:26;19.40;;;5.57;;
28176;SDS011;15461;41.652;9.378;2023-06-22T11:16:52;11.43;;;4.40;;
28176;SDS011;15461;41.652;9.378;2023-06-22T11:19:18;14.63;;;4.68;;
28176;SDS011;15461;41.652;9.378;2023-06-22T11:21:44;10.55;;;4.25;;
28176;SDS011;15461;41.652;9.378;2023-06-22T11:24:10;12.00;;;4.53;;
28176;SDS011;15461;41.652;9.378;2023-06-22T11:26:36;16.30;;;4.85;;
28176;SDS011;15461;41.652;9.378;2023-06-22T11:29:02;14.10;;;4.63;;
28176;SDS011;15461;41.652;9.378;2023-06-22T11:31:31;15.75;;;4.80;;
28176;SDS011;15461;41.652;9.378;2023-06-22T11:33:57;15.30;;;4.65;;
28176;SDS011;15461;41.652;9.378;2023-06-22T11:36:24;18.15;;;5.38;;
28176;SDS011;15461;41.652;9.378;2023-06-22T11:38:51;16.40;;;4.70;;
28176;SDS011;15461;41.652;9.378;2023-06-22T11:41:16;12.88;;;4.57;;
28176;SDS011;15461;41.652;9.378;2023-06-22T11:43:42;10.35;;;4.38;;
28176;SDS011;15461;41.652;9.378;2023-06-22T11:46:09;15.80;;;4.80;;
28176;SDS011;15461;41.652;9.378;2023-06-22T11:48:49;13.75;;;5.30;;
28176;SDS011;15461;41.652;9.378;2023-06-22T11:51:15;10.10;;;4.50;;
28176;SDS011;15461;41.652;9.378;2023-06-22T11:53:41;14.18;;;4.97;;
28176;SDS011;15461;41.652;9.378;2023-06-22T11:56:07;11.57;;;4.13;;
28176;SDS011;15461;41.652;9.378;2023-06-22T11:58:33;13.45;;;4.63;;
28176;SDS011;15461;41.652;9.378;2023-06-22T12:00:58;11.20;;;4.50;;
28176;SDS011;15461;41.652;9.378;2023-06-22T12:03:24;12.55;;;4.75;;
28176;SDS011;15461;41.652;9.378;2023-06-22T12:05:50;17.10;;;4.80;;
28176;SDS011;15461;41.652;9.378;2023-06-22T12:08:17;12.00;;;4.70;;
28176;SDS011;15461;41.652;9.378;2023-06-22T12:10:43;12.73;;;4.82;;
28176;SDS011;15461;41.652;9.378;2023-06-22T12:13:09;13.60;;;4.65;;
28176;SDS011;15461;41.652;9.378;2023-06-22T12:15:35;13.05;;;4.57;;
28176;SDS011;15461;41.652;9.378;2023-06-22T12:18:01;15.30;;;5.20;;
28176;SDS011;15461;41.652;9.378;2023-06-22T12:20:27;12.70;;;4.55;;
28176;SDS011;15461;41.652;9.378;2023-06-22T12:22:53;13.05;;;5.32;;
28176;SDS011;15461;41.652;9.378;2023-06-22T12:25:21;11.07;;;4.97;;
28176;SDS011;15461;41.652;9.378;2023-06-22T12:27:47;11.68;;;4.70;;
28176;SDS011;15461;41.652;9.378;2023-06-22T12:30:13;12.63;;;5.30;;
28176;SDS011;15461;41.652;9.378;2023-06-22T12:32:39;11.60;;;4.55;;
28176;SDS011;15461;41.652;9.378;2023-06-22T12:35:05;11.35;;;4.55;;
28176;SDS011;15461;41.652;9.378;2023-06-22T12:37:33;13.25;;;5.13;;
28176;SDS011;15461;41.652;9.378;2023-06-22T12:39:59;13.13;;;4.85;;
28176;SDS011;15461;41.652;9.378;2023-06-22T12:42:25;11.85;;;5.10;;
28176;SDS011;15461;41.652;9.378;2023-06-22T12:44:53;14.18;;;4.90;;
28176;SDS011;15461;41.652;9.378;2023-06-22T12:47:19;12.27;;;4.80;;
28176;SDS011;15461;41.652;9.378;2023-06-22T12:49:45;19.60;;;5.07;;
28176;SDS011;15461;41.652;9.378;2023-06-22T12:52:11;9.55;;;4.90;;
28176;SDS011;15461;41.652;9.378;2023-06-22T12:54:36;12.55;;;5.22;;
28176;SDS011;15461;41.652;9.378;2023-06-22T12:57:02;14.25;;;4.85;;
28176;SDS011;15461;41.652;9.378;2023-06-22T12:59:28;9.80;;;4.70;;
28176;SDS011;15461;41.652;9.378;2023-06-22T13:01:54;17.35;;;5.05;;
28176;SDS011;15461;41.652;9.378;2023-06-22T13:04:20;11.20;;;5.20;;
28176;SDS011;15461;41.652;9.378;2023-06-22T13:06:46;12.10;;;5.00;;
28176;SDS011;15461;41.652;9.378;2023-06-22T13:09:15;12.80;;;5.43;;
28176;SDS011;15461;41.652;9.378;2023-06-22T13:11:42;12.30;;;5.07;;
28176;SDS011;15461;41.652;9.378;2023-06-22T13:14:08;14.18;;;4.82;;
28176;SDS011;15461;41.652;9.378;2023-06-22T13:16:34;9.45;;;4.78;;
28176;SDS011;15461;41.652;9.378;2023-06-22T13:19:00;13.35;;;5.18;;
28176;SDS011;15461;41.652;9.378;2023-06-22T13:21:26;15.65;;;5.00;;
28176;SDS011;15461;41.652;9.378;2023-06-22T13:23:51;13.20;;;5.25;;
28176;SDS011;15461;41.652;9.378;2023-06-22T13:26:17;12.45;;;4.85;;
28176;SDS011;15461;41.652;9.378;2023-06-22T13:28:43;12.55;;;4.38;;
28176;SDS011;15461;41.652;9.378;2023-06-22T13:31:09;11.80;;;5.05;;
28176;SDS011;15461;41.652;9.378;2023-06-22T13:33:35;13.80;;;4.80;;
28176;SDS011;15461;41.652;9.378;2023-06-22T13:36:02;17.30;;;5.25;;
28176;SDS011;15461;41.652;9.378;2023-06-22T13:38:28;10.65;;;4.93;;
28176;SDS011;15461;41.652;9.378;2023-06-22T13:40:56;14.30;;;4.80;;
28176;SDS011;15461;41.652;9.378;2023-06-22T13:43:23;12.40;;;5.18;;
28176;SDS011;15461;41.652;9.378;2023-06-22T13:45:49;11.55;;;4.40;;
28176;SDS011;15461;41.652;9.378;2023-06-22T13:48:15;13.95;;;4.63;;
28176;SDS011;15461;41.652;9.378;2023-06-22T13:50:41;12.75;;;5.03;;
28176;SDS011;15461;41.652;9.378;2023-06-22T13:53:06;15.65;;;4.80;;
28176;SDS011;15461;41.652;9.378;2023-06-22T13:55:32;13.43;;;4.68;;
28176;SDS011;15461;41.652;9.378;2023-06-22T13:57:58;13.55;;;5.07;;
28176;SDS011;15461;41.652;9.378;2023-06-22T14:00:24;15.02;;;4.82;;
28176;SDS011;15461;41.652;9.378;2023-06-22T14:02:50;18.10;;;5.38;;
28176;SDS011;15461;41.652;9.378;2023-06-22T14:05:16;12.85;;;4.97;;
28176;SDS011;15461;41.652;9.378;2023-06-22T14:07:42;13.88;;;4.63;;
28176;SDS011;15461;41.652;9.378;2023-06-22T14:10:08;11.73;;;5.07;;
28176;SDS011;15461;41.652;9.378;2023-06-22T14:12:34;11.93;;;4.75;;
28176;SDS011;15461;41.652;9.378;2023-06-22T14:15:00;12.77;;;4.97;;
28176;SDS011;15461;41.652;9.378;2023-06-22T14:17:25;13.45;;;4.50;;
28176;SDS011;15461;41.652;9.378;2023-06-22T14:19:52;13.73;;;4.90;;
28176;SDS011;15461;41.652;9.378;2023-06-22T14:22:18;14.07;;;4.80;;
28176;SDS011;15461;41.652;9.378;2023-06-22T14:24:45;13.43;;;4.88;;
28176;SDS011;15461;41.652;9.378;2023-06-22T14:27:11;11.60;;;5.03;;
28176;SDS011;15461;41.652;9.378;2023-06-22T14:29:37;13.65;;;4.93;;
28176;SDS011;15461;41.652;9.378;2023-06-22T14:32:03;14.82;;;5.00;;
28176;SDS011;15461;41.652;9.378;2023-06-22T14:34:31;16.80;;;5.03;;
28176;SDS011;15461;41.652;9.378;2023-06-22T14:36:57;13.77;;;5.03;;
28176;SDS011;15461;41.652;9.378;2023-06-22T14:39:23;20.60;;;5.70;;